หน้าหลัก
METAR-TAF:

METAR-TAF

ท่าอากาศยาน :

Malabo, อิเควทอเรียลกินี

ละติจูด: 03-45-18N, ลองจิจูด: 08-42-31E, ความสูง: 23 ม.

การสังเกตสภาพอากาศปัจจุบัน

รายงานได้ทำขึ้นเมื่อ 59 นาทีที่แล้ว ณ เวลา 08:00 UTC
ลมสงบ
อุณหภูมิ 29°C
ความชื้น 79%
ความกดอากาศ 1014 hPa
ทัศนวิสัย: 6000 ม.
มีเมฆน้อยที่ความสูง 1000 ฟุต

METAR: FGSL 250800Z 00000KT 6000 FEW010 29/25 Q1014 NOSIG

เวลา: 09:59 (08:59 UTC)

การพยากรณ์

รายงานได้ทำขึ้นเมื่อ 9 ชั่วโมงและ 59 นาทีที่แล้ว ณ เวลา 23:00 UTC
การพยากรณ์มีผลตั้งแต่วันที่ 25 ณ เวลา 00 UTC จนถึงวันที่ 26 ณ เวลา 06 UTC
ลม 6 นอตจากตะวันตก/ตะวันตกเฉียงใต้
ทัศนวิสัย 10 กม. หรือมากกว่า
มีเมฆกระจายเป็นบางส่วนที่ความสูง 1000 ฟุต
มีเมฆน้อยที่ความสูง 2000 ฟุต, คิวมูโลนิมบัส.
ความน่าจะเป็น 30% :
ชั่วคราว
ตั้งแต่วันที่ 25 ณ เวลา 02 UTC จนถึงวันที่ 25 ณ เวลา 09 UTC
ทัศนวิสัย: 4000 ม.
มีเมฆเป็นส่วนมากเว้นเป็นระยะที่ความสูง 900 ฟุต
มีเมฆน้อยที่ความสูง 1800 ฟุต, คิวมูโลนิมบัส.
พายุฝนฟ้าคะนอง, ฝน,

TAF: FGSL 242300Z 2500/2606 24006KT 9999 SCT010 FEW020CB PROB30 TEMPO 2502/2509 4000 TSRA BKN009 FEW018CB

สังเกตการณ์สภาพอากาศและพยากรณ์อากาศของสนามบินมากกว่า 4000 แห่ง (รายงาน METAR และ TAF).

สถานีที่ดูได้จะแสดงไว้ด้วยจุดสีเหลืองและสีแดงบนแผนที่.

เลื่อนเมาส์ไปเหนือจุดเพื่อดูชื่อสถานี.

แล้วคลิกเพื่อดูสังเกตการณ์และการพยากรณ์สภาพอากาศ.

ในการเปลี่ยนแผนที่: คลิกที่ปุ่มสีเขียวที่มีกากบาทสีดำเพื่อซูมเข้า; ที่ปุ่มสีเขียวที่มีขีดเพื่อซูมออก; หรือที่ลูกศรสีเขียวเพื่อไปยังแผนที่ที่อยู่ติดกัน.


METAR-TAF: